sensor_id;sensor_type;location;lat;lon;timestamp;temperature;humidity
20885;DHT22;10602;48.000;9.654;2022-12-07T00:01:51;2.20;99.90
20885;DHT22;10602;48.000;9.654;2022-12-07T00:04:18;2.20;99.90
20885;DHT22;10602;48.000;9.654;2022-12-07T00:06:50;2.20;99.90
20885;DHT22;10602;48.000;9.654;2022-12-07T00:09:17;2.20;99.90
20885;DHT22;10602;48.000;9.654;2022-12-07T00:11:48;2.20;99.90
20885;DHT22;10602;48.000;9.654;2022-12-07T00:14:15;2.20;99.90
20885;DHT22;10602;48.000;9.654;2022-12-07T00:16:44;2.10;99.90
20885;DHT22;10602;48.000;9.654;2022-12-07T00:19:13;2.10;99.90
20885;DHT22;10602;48.000;9.654;2022-12-07T00:21:41;2.10;99.90
20885;DHT22;10602;48.000;9.654;2022-12-07T00:24:10;2.10;99.90
20885;DHT22;10602;48.000;9.654;2022-12-07T00:44:49;2.20;99.90
20885;DHT22;10602;48.000;9.654;2022-12-07T00:47:17;2.20;99.90
20885;DHT22;10602;48.000;9.654;2022-12-07T00:49:44;2.20;99.90
20885;DHT22;10602;48.000;9.654;2022-12-07T00:52:12;2.20;99.90
20885;DHT22;10602;48.000;9.654;2022-12-07T00:54:40;2.10;99.90
20885;DHT22;10602;48.000;9.654;2022-12-07T00:57:07;2.10;99.90
20885;DHT22;10602;48.000;9.654;2022-12-07T00:59:35;2.10;99.90
20885;DHT22;10602;48.000;9.654;2022-12-07T01:02:02;2.10;99.90
20885;DHT22;10602;48.000;9.654;2022-12-07T01:04:30;2.10;99.90
20885;DHT22;10602;48.000;9.654;2022-12-07T01:06:59;2.10;99.90
20885;DHT22;10602;48.000;9.654;2022-12-07T01:09:26;2.10;99.90
20885;DHT22;10602;48.000;9.654;2022-12-07T01:11:54;2.10;99.90
20885;DHT22;10602;48.000;9.654;2022-12-07T01:14:21;2.00;99.90
20885;DHT22;10602;48.000;9.654;2022-12-07T01:16:49;2.00;99.90
20885;DHT22;10602;48.000;9.654;2022-12-07T01:19:17;2.10;99.90
20885;DHT22;10602;48.000;9.654;2022-12-07T01:21:44;2.10;99.90
20885;DHT22;10602;48.000;9.654;2022-12-07T01:24:12;2.10;99.90
20885;DHT22;10602;48.000;9.654;2022-12-07T01:26:39;2.00;99.90
20885;DHT22;10602;48.000;9.654;2022-12-07T01:29:07;1.90;99.90
20885;DHT22;10602;48.000;9.654;2022-12-07T01:31:35;2.00;99.90
20885;DHT22;10602;48.000;9.654;2022-12-07T01:34:02;2.00;99.90
20885;DHT22;10602;48.000;9.654;2022-12-07T01:36:32;1.90;99.90
20885;DHT22;10602;48.000;9.654;2022-12-07T01:39:03;1.90;99.90
20885;DHT22;10602;48.000;9.654;2022-12-07T01:41:32;1.90;99.90
20885;DHT22;10602;48.000;9.654;2022-12-07T01:44:24;1.80;99.90
20885;DHT22;10602;48.000;9.654;2022-12-07T01:46:53;1.80;99.90
20885;DHT22;10602;48.000;9.654;2022-12-07T01:52:01;1.80;99.90
20885;DHT22;10602;48.000;9.654;2022-12-07T01:54:27;1.80;99.90
20885;DHT22;10602;48.000;9.654;2022-12-07T01:56:56;1.70;99.90
20885;DHT22;10602;48.000;9.654;2022-12-07T01:59:25;1.80;99.90
20885;DHT22;10602;48.000;9.654;2022-12-07T02:01:54;1.70;99.90
20885;DHT22;10602;48.000;9.654;2022-12-07T02:04:23;1.70;99.90
20885;DHT22;10602;48.000;9.654;2022-12-07T02:06:52;1.80;99.90
20885;DHT22;10602;48.000;9.654;2022-12-07T02:09:21;1.80;99.90
20885;DHT22;10602;48.000;9.654;2022-12-07T02:11:48;1.90;99.90
20885;DHT22;10602;48.000;9.654;2022-12-07T02:14:16;1.90;99.90
20885;DHT22;10602;48.000;9.654;2022-12-07T02:16:47;1.90;99.90
20885;DHT22;10602;48.000;9.654;2022-12-07T02:27:50;1.90;99.90
20885;DHT22;10602;48.000;9.654;2022-12-07T02:30:16;1.90;99.90
20885;DHT22;10602;48.000;9.654;2022-12-07T02:32:51;2.00;99.90
20885;DHT22;10602;48.000;9.654;2022-12-07T02:35:20;2.00;99.90
20885;DHT22;10602;48.000;9.654;2022-12-07T02:37:58;2.00;99.90
20885;DHT22;10602;48.000;9.654;2022-12-07T02:40:50;1.90;99.90
20885;DHT22;10602;48.000;9.654;2022-12-07T02:45:48;1.90;99.90
20885;DHT22;10602;48.000;9.654;2022-12-07T02:48:19;1.90;99.90
20885;DHT22;10602;48.000;9.654;2022-12-07T02:50:52;1.90;99.90
20885;DHT22;10602;48.000;9.654;2022-12-07T02:53:40;1.90;99.90
20885;DHT22;10602;48.000;9.654;2022-12-07T02:56:25;1.90;99.90
20885;DHT22;10602;48.000;9.654;2022-12-07T03:01:52;1.80;99.90
20885;DHT22;10602;48.000;9.654;2022-12-07T03:04:41;1.80;99.90
20885;DHT22;10602;48.000;9.654;2022-12-07T03:07:21;1.80;99.90
20885;DHT22;10602;48.000;9.654;2022-12-07T03:15:16;1.80;99.90
20885;DHT22;10602;48.000;9.654;2022-12-07T03:17:40;1.80;99.90
20885;DHT22;10602;48.000;9.654;2022-12-07T03:20:12;1.80;99.90
20885;DHT22;10602;48.000;9.654;2022-12-07T03:22:41;1.80;99.90
20885;DHT22;10602;48.000;9.654;2022-12-07T03:25:11;1.80;99.90
20885;DHT22;10602;48.000;9.654;2022-12-07T03:27:54;1.80;99.90
20885;DHT22;10602;48.000;9.654;2022-12-07T03:30:27;1.80;99.90
20885;DHT22;10602;48.000;9.654;2022-12-07T03:33:06;1.70;99.90
20885;DHT22;10602;48.000;9.654;2022-12-07T03:35:38;1.60;99.90
20885;DHT22;10602;48.000;9.654;2022-12-07T03:38:28;1.60;99.90
20885;DHT22;10602;48.000;9.654;2022-12-07T03:40:54;1.50;99.90
20885;DHT22;10602;48.000;9.654;2022-12-07T03:43:22;1.50;99.90
20885;DHT22;10602;48.000;9.654;2022-12-07T03:46:06;1.50;99.90
20885;DHT22;10602;48.000;9.654;2022-12-07T03:48:54;1.60;99.90
20885;DHT22;10602;48.000;9.654;2022-12-07T03:53:58;1.50;99.90
20885;DHT22;10602;48.000;9.654;2022-12-07T03:56:15;1.50;99.90
20885;DHT22;10602;48.000;9.654;2022-12-07T03:58:43;1.50;99.90
20885;DHT22;10602;48.000;9.654;2022-12-07T04:01:11;1.50;99.90
20885;DHT22;10602;48.000;9.654;2022-12-07T04:03:39;1.60;99.90
20885;DHT22;10602;48.000;9.654;2022-12-07T04:06:06;1.50;99.90
20885;DHT22;10602;48.000;9.654;2022-12-07T04:08:34;1.50;99.90
20885;DHT22;10602;48.000;9.654;2022-12-07T04:11:02;1.60;99.90
20885;DHT22;10602;48.000;9.654;2022-12-07T04:13:29;1.60;99.90
20885;DHT22;10602;48.000;9.654;2022-12-07T04:15:58;1.60;99.90
20885;DHT22;10602;48.000;9.654;2022-12-07T04:18:26;1.60;99.90
20885;DHT22;10602;48.000;9.654;2022-12-07T04:20:53;1.60;99.90
20885;DHT22;10602;48.000;9.654;2022-12-07T04:23:21;1.50;99.90
20885;DHT22;10602;48.000;9.654;2022-12-07T04:25:49;1.60;99.90
20885;DHT22;10602;48.000;9.654;2022-12-07T04:28:16;1.60;99.90
20885;DHT22;10602;48.000;9.654;2022-12-07T04:30:45;1.50;99.90
20885;DHT22;10602;48.000;9.654;2022-12-07T04:33:12;1.50;99.90
20885;DHT22;10602;48.000;9.654;2022-12-07T04:35:41;1.50;99.90
20885;DHT22;10602;48.000;9.654;2022-12-07T04:38:08;1.50;99.90
20885;DHT22;10602;48.000;9.654;2022-12-07T04:40:36;1.40;99.90
20885;DHT22;10602;48.000;9.654;2022-12-07T04:43:03;1.40;99.90
20885;DHT22;10602;48.000;9.654;2022-12-07T04:45:31;1.40;99.90
20885;DHT22;10602;48.000;9.654;2022-12-07T04:47:58;1.40;99.90
20885;DHT22;10602;48.000;9.654;2022-12-07T04:50:26;1.40;99.90
20885;DHT22;10602;48.000;9.654;2022-12-07T04:52:53;1.40;99.90
20885;DHT22;10602;48.000;9.654;2022-12-07T04:55:21;1.40;99.90
20885;DHT22;10602;48.000;9.654;2022-12-07T04:57:48;1.40;99.90
20885;DHT22;10602;48.000;9.654;2022-12-07T05:00:16;1.40;99.90
20885;DHT22;10602;48.000;9.654;2022-12-07T05:02:44;1.40;99.90
20885;DHT22;10602;48.000;9.654;2022-12-07T05:05:11;1.40;99.90
20885;DHT22;10602;48.000;9.654;2022-12-07T05:07:39;1.40;99.90
20885;DHT22;10602;48.000;9.654;2022-12-07T05:10:07;1.40;99.90
20885;DHT22;10602;48.000;9.654;2022-12-07T05:12:34;1.40;99.90
20885;DHT22;10602;48.000;9.654;2022-12-07T05:15:02;1.40;99.90
20885;DHT22;10602;48.000;9.654;2022-12-07T05:17:29;1.30;99.90
20885;DHT22;10602;48.000;9.654;2022-12-07T05:19:57;1.20;99.90
20885;DHT22;10602;48.000;9.654;2022-12-07T05:22:24;1.20;99.90
20885;DHT22;10602;48.000;9.654;2022-12-07T05:24:54;1.10;99.90
20885;DHT22;10602;48.000;9.654;2022-12-07T05:27:22;1.10;99.90
20885;DHT22;10602;48.000;9.654;2022-12-07T05:29:50;1.00;99.90
20885;DHT22;10602;48.000;9.654;2022-12-07T05:32:18;1.00;99.90
20885;DHT22;10602;48.000;9.654;2022-12-07T07:49:11;1.30;99.90
20885;DHT22;10602;48.000;9.654;2022-12-07T07:51:38;1.40;99.90
20885;DHT22;10602;48.000;9.654;2022-12-07T07:54:06;1.40;99.90
20885;DHT22;10602;48.000;9.654;2022-12-07T07:56:33;1.40;99.90
20885;DHT22;10602;48.000;9.654;2022-12-07T07:59:01;1.40;99.90
20885;DHT22;10602;48.000;9.654;2022-12-07T08:01:28;1.50;99.90
20885;DHT22;10602;48.000;9.654;2022-12-07T08:03:56;1.50;99.90
20885;DHT22;10602;48.000;9.654;2022-12-07T08:06:23;1.60;99.90
20885;DHT22;10602;48.000;9.654;2022-12-07T08:08:51;1.70;99.90
20885;DHT22;10602;48.000;9.654;2022-12-07T08:11:19;1.70;99.90
20885;DHT22;10602;48.000;9.654;2022-12-07T08:13:46;1.70;99.90
20885;DHT22;10602;48.000;9.654;2022-12-07T08:16:14;1.80;99.90
20885;DHT22;10602;48.000;9.654;2022-12-07T08:18:42;1.80;99.90
20885;DHT22;10602;48.000;9.654;2022-12-07T08:21:12;1.80;99.90
20885;DHT22;10602;48.000;9.654;2022-12-07T08:23:40;1.90;99.90
20885;DHT22;10602;48.000;9.654;2022-12-07T08:26:10;2.00;99.90
20885;DHT22;10602;48.000;9.654;2022-12-07T08:28:38;2.10;99.90
20885;DHT22;10602;48.000;9.654;2022-12-07T08:31:09;2.10;99.90
20885;DHT22;10602;48.000;9.654;2022-12-07T08:33:36;2.20;99.90
20885;DHT22;10602;48.000;9.654;2022-12-07T08:36:06;2.30;99.90
20885;DHT22;10602;48.000;9.654;2022-12-07T08:38:35;2.30;99.90
20885;DHT22;10602;48.000;9.654;2022-12-07T08:41:03;2.30;99.90
20885;DHT22;10602;48.000;9.654;2022-12-07T08:43:31;2.30;99.90
20885;DHT22;10602;48.000;9.654;2022-12-07T08:46:20;2.40;99.90
20885;DHT22;10602;48.000;9.654;2022-12-07T08:48:55;2.30;99.90
20885;DHT22;10602;48.000;9.654;2022-12-07T08:51:20;2.40;99.90
20885;DHT22;10602;48.000;9.654;2022-12-07T08:53:49;2.40;99.90
20885;DHT22;10602;48.000;9.654;2022-12-07T08:56:18;2.50;99.90
20885;DHT22;10602;48.000;9.654;2022-12-07T08:58:46;2.70;99.90
20885;DHT22;10602;48.000;9.654;2022-12-07T09:01:14;2.70;99.90
20885;DHT22;10602;48.000;9.654;2022-12-07T09:03:41;2.80;99.90
20885;DHT22;10602;48.000;9.654;2022-12-07T09:06:09;2.70;99.90
20885;DHT22;10602;48.000;9.654;2022-12-07T09:08:42;2.80;99.90
20885;DHT22;10602;48.000;9.654;2022-12-07T09:11:07;3.00;99.90
20885;DHT22;10602;48.000;9.654;2022-12-07T09:13:37;2.90;99.90
20885;DHT22;10602;48.000;9.654;2022-12-07T09:16:04;2.90;99.90
20885;DHT22;10602;48.000;9.654;2022-12-07T09:18:32;2.80;99.90
20885;DHT22;10602;48.000;9.654;2022-12-07T09:20:59;2.90;99.90
20885;DHT22;10602;48.000;9.654;2022-12-07T09:23:27;3.00;99.90
20885;DHT22;10602;48.000;9.654;2022-12-07T09:25:55;3.00;99.90
20885;DHT22;10602;48.000;9.654;2022-12-07T09:28:24;3.20;99.90
20885;DHT22;10602;48.000;9.654;2022-12-07T09:30:51;3.30;99.90
20885;DHT22;10602;48.000;9.654;2022-12-07T09:33:19;3.30;99.90
20885;DHT22;10602;48.000;9.654;2022-12-07T09:35:51;3.30;99.90
20885;DHT22;10602;48.000;9.654;2022-12-07T09:38:19;3.40;99.90
20885;DHT22;10602;48.000;9.654;2022-12-07T09:40:47;3.50;99.90
20885;DHT22;10602;48.000;9.654;2022-12-07T09:43:17;3.60;99.90
20885;DHT22;10602;48.000;9.654;2022-12-07T09:45:47;3.60;99.90
20885;DHT22;10602;48.000;9.654;2022-12-07T09:48:18;3.70;99.90
20885;DHT22;10602;48.000;9.654;2022-12-07T09:50:47;3.80;99.90
20885;DHT22;10602;48.000;9.654;2022-12-07T09:55:49;3.80;99.90
20885;DHT22;10602;48.000;9.654;2022-12-07T09:58:23;4.10;99.90
20885;DHT22;10602;48.000;9.654;2022-12-07T10:00:47;4.10;99.90
20885;DHT22;10602;48.000;9.654;2022-12-07T10:03:14;4.00;99.90
20885;DHT22;10602;48.000;9.654;2022-12-07T10:05:47;4.10;99.90
20885;DHT22;10602;48.000;9.654;2022-12-07T10:08:16;3.80;99.90
20885;DHT22;10602;48.000;9.654;2022-12-07T10:10:44;3.90;99.90
20885;DHT22;10602;48.000;9.654;2022-12-07T10:13:14;3.90;99.90
20885;DHT22;10602;48.000;9.654;2022-12-07T10:15:48;4.00;99.90
20885;DHT22;10602;48.000;9.654;2022-12-07T10:18:36;4.10;99.90
20885;DHT22;10602;48.000;9.654;2022-12-07T10:21:15;4.10;99.90
20885;DHT22;10602;48.000;9.654;2022-12-07T10:26:33;4.30;99.90
20885;DHT22;10602;48.000;9.654;2022-12-07T10:29:20;4.40;99.90
20885;DHT22;10602;48.000;9.654;2022-12-07T10:31:45;4.70;99.90
20885;DHT22;10602;48.000;9.654;2022-12-07T10:34:28;4.50;99.90
20885;DHT22;10602;48.000;9.654;2022-12-07T10:36:53;4.50;99.90
20885;DHT22;10602;48.000;9.654;2022-12-07T10:39:23;4.40;99.90
20885;DHT22;10602;48.000;9.654;2022-12-07T10:41:58;4.50;99.90
20885;DHT22;10602;48.000;9.654;2022-12-07T10:44:31;4.60;99.90
20885;DHT22;10602;48.000;9.654;2022-12-07T10:47:07;4.50;99.90
20885;DHT22;10602;48.000;9.654;2022-12-07T10:55:27;4.50;99.90
20885;DHT22;10602;48.000;9.654;2022-12-07T11:06:18;5.00;99.90
20885;DHT22;10602;48.000;9.654;2022-12-07T11:09:03;5.20;99.90
20885;DHT22;10602;48.000;9.654;2022-12-07T11:11:38;5.00;99.90
20885;DHT22;10602;48.000;9.654;2022-12-07T11:14:25;4.90;99.90
20885;DHT22;10602;48.000;9.654;2022-12-07T11:17:05;5.00;99.90
20885;DHT22;10602;48.000;9.654;2022-12-07T11:20:00;5.10;99.90
20885;DHT22;10602;48.000;9.654;2022-12-07T11:25:28;5.00;99.90
20885;DHT22;10602;48.000;9.654;2022-12-07T11:35:36;5.10;99.90
20885;DHT22;10602;48.000;9.654;2022-12-07T11:38:14;5.00;99.90
20885;DHT22;10602;48.000;9.654;2022-12-07T11:40:49;5.00;99.90
20885;DHT22;10602;48.000;9.654;2022-12-07T11:46:12;5.30;99.90
20885;DHT22;10602;48.000;9.654;2022-12-07T11:51:35;5.40;99.90
20885;DHT22;10602;48.000;9.654;2022-12-07T11:54:28;5.20;99.90
20885;DHT22;10602;48.000;9.654;2022-12-07T11:56:35;4.90;99.90
20885;DHT22;10602;48.000;9.654;2022-12-07T11:59:17;5.00;99.90
20885;DHT22;10602;48.000;9.654;2022-12-07T12:01:48;4.90;99.90
20885;DHT22;10602;48.000;9.654;2022-12-07T12:04:42;4.70;99.90
20885;DHT22;10602;48.000;9.654;2022-12-07T12:07:06;4.80;99.90
20885;DHT22;10602;48.000;9.654;2022-12-07T12:09:40;4.70;99.90
20885;DHT22;10602;48.000;9.654;2022-12-07T12:12:17;4.70;99.90
20885;DHT22;10602;48.000;9.654;2022-12-07T12:18:03;4.70;99.90
20885;DHT22;10602;48.000;9.654;2022-12-07T12:20:50;4.70;99.90
20885;DHT22;10602;48.000;9.654;2022-12-07T12:25:54;4.60;99.90
20885;DHT22;10602;48.000;9.654;2022-12-07T12:28:27;4.60;99.90
20885;DHT22;10602;48.000;9.654;2022-12-07T12:33:53;4.50;99.90
20885;DHT22;10602;48.000;9.654;2022-12-07T12:39:13;4.30;99.90
20885;DHT22;10602;48.000;9.654;2022-12-07T12:46:56;4.20;99.90
20885;DHT22;10602;48.000;9.654;2022-12-07T12:52:00;3.80;99.90
20885;DHT22;10602;48.000;9.654;2022-12-07T12:54:30;3.70;99.90
20885;DHT22;10602;48.000;9.654;2022-12-07T12:57:26;3.60;99.90
20885;DHT22;10602;48.000;9.654;2022-12-07T13:02:31;3.50;99.90
20885;DHT22;10602;48.000;9.654;2022-12-07T13:18:38;3.80;99.90
20885;DHT22;10602;48.000;9.654;2022-12-07T13:26:24;3.50;99.90
20885;DHT22;10602;48.000;9.654;2022-12-07T13:29:09;3.30;99.90
20885;DHT22;10602;48.000;9.654;2022-12-07T13:31:53;3.20;99.90
20885;DHT22;10602;48.000;9.654;2022-12-07T13:34:36;3.10;99.90
20885;DHT22;10602;48.000;9.654;2022-12-07T13:39:56;2.80;99.90
20885;DHT22;10602;48.000;9.654;2022-12-07T13:42:26;2.80;99.90
20885;DHT22;10602;48.000;9.654;2022-12-07T13:44:54;2.80;99.90
20885;DHT22;10602;48.000;9.654;2022-12-07T13:47:41;2.80;99.90
20885;DHT22;10602;48.000;9.654;2022-12-07T13:50:28;2.80;99.90
20885;DHT22;10602;48.000;9.654;2022-12-07T13:52:57;2.80;99.90
20885;DHT22;10602;48.000;9.654;2022-12-07T13:55:26;2.70;99.90
20885;DHT22;10602;48.000;9.654;2022-12-07T13:57:54;2.70;99.90
20885;DHT22;10602;48.000;9.654;2022-12-07T14:00:25;2.60;99.90
20885;DHT22;10602;48.000;9.654;2022-12-07T14:05:34;2.40;99.90
20885;DHT22;10602;48.000;9.654;2022-12-07T14:08:05;2.30;99.90
20885;DHT22;10602;48.000;9.654;2022-12-07T14:10:40;2.20;99.90
20885;DHT22;10602;48.000;9.654;2022-12-07T14:13:39;2.20;99.90
20885;DHT22;10602;48.000;9.654;2022-12-07T14:15:40;2.10;99.90
20885;DHT22;10602;48.000;9.654;2022-12-07T14:18:24;2.10;99.90
20885;DHT22;10602;48.000;9.654;2022-12-07T14:20:40;2.10;99.90
20885;DHT22;10602;48.000;9.654;2022-12-07T14:23:25;2.10;99.90
20885;DHT22;10602;48.000;9.654;2022-12-07T14:25:53;2.10;99.90
20885;DHT22;10602;48.000;9.654;2022-12-07T14:28:34;2.10;99.90
20885;DHT22;10602;48.000;9.654;2022-12-07T14:30:58;2.10;99.90
20885;DHT22;10602;48.000;9.654;2022-12-07T14:33:26;2.00;99.90
20885;DHT22;10602;48.000;9.654;2022-12-07T14:35:55;1.90;99.90
20885;DHT22;10602;48.000;9.654;2022-12-07T14:38:25;1.90;99.90
20885;DHT22;10602;48.000;9.654;2022-12-07T14:40:53;2.00;99.90
20885;DHT22;10602;48.000;9.654;2022-12-07T14:43:23;2.00;99.90
20885;DHT22;10602;48.000;9.654;2022-12-07T14:45:51;2.00;99.90
20885;DHT22;10602;48.000;9.654;2022-12-07T14:48:18;2.10;99.90
20885;DHT22;10602;48.000;9.654;2022-12-07T14:50:51;2.00;99.90
20885;DHT22;10602;48.000;9.654;2022-12-07T14:53:21;1.80;99.90
20885;DHT22;10602;48.000;9.654;2022-12-07T14:55:49;1.70;99.90
20885;DHT22;10602;48.000;9.654;2022-12-07T14:58:17;1.60;99.90
20885;DHT22;10602;48.000;9.654;2022-12-07T15:00:45;1.50;99.90
20885;DHT22;10602;48.000;9.654;2022-12-07T15:03:14;1.40;99.90
20885;DHT22;10602;48.000;9.654;2022-12-07T15:05:41;1.40;99.90
20885;DHT22;10602;48.000;9.654;2022-12-07T15:08:15;1.20;99.90
20885;DHT22;10602;48.000;9.654;2022-12-07T15:10:39;1.10;99.90
20885;DHT22;10602;48.000;9.654;2022-12-07T15:13:07;1.00;99.90
20885;DHT22;10602;48.000;9.654;2022-12-07T15:15:53;0.80;99.90
20885;DHT22;10602;48.000;9.654;2022-12-07T15:18:22;0.70;99.90
20885;DHT22;10602;48.000;9.654;2022-12-07T15:20:50;0.60;99.90
20885;DHT22;10602;48.000;9.654;2022-12-07T15:23:18;0.60;99.90
20885;DHT22;10602;48.000;9.654;2022-12-07T15:25:47;0.50;99.90
20885;DHT22;10602;48.000;9.654;2022-12-07T15:28:15;0.40;99.90
20885;DHT22;10602;48.000;9.654;2022-12-07T15:30:43;0.30;99.90
20885;DHT22;10602;48.000;9.654;2022-12-07T15:33:12;0.30;99.90
20885;DHT22;10602;48.000;9.654;2022-12-07T15:35:40;0.20;99.90
20885;DHT22;10602;48.000;9.654;2022-12-07T15:38:08;0.10;99.90
20885;DHT22;10602;48.000;9.654;2022-12-07T15:40:35;0.10;99.90
20885;DHT22;10602;48.000;9.654;2022-12-07T15:43:03;0.00;99.90
20885;DHT22;10602;48.000;9.654;2022-12-07T15:45:31;0.00;99.90
20885;DHT22;10602;48.000;9.654;2022-12-07T15:47:58;-0.10;99.90
20885;DHT22;10602;48.000;9.654;2022-12-07T15:50:27;-0.10;99.90
20885;DHT22;10602;48.000;9.654;2022-12-07T15:52:55;-0.20;99.90
20885;DHT22;10602;48.000;9.654;2022-12-07T15:55:22;-0.30;99.90
20885;DHT22;10602;48.000;9.654;2022-12-07T15:57:50;-0.30;99.90
20885;DHT22;10602;48.000;9.654;2022-12-07T16:00:18;-0.30;99.90
20885;DHT22;10602;48.000;9.654;2022-12-07T16:02:46;-0.30;99.90
20885;DHT22;10602;48.000;9.654;2022-12-07T16:05:22;-0.40;99.90
20885;DHT22;10602;48.000;9.654;2022-12-07T16:08:02;-0.50;99.90
20885;DHT22;10602;48.000;9.654;2022-12-07T16:10:29;-0.50;99.90
20885;DHT22;10602;48.000;9.654;2022-12-07T16:12:57;-0.60;99.90
20885;DHT22;10602;48.000;9.654;2022-12-07T16:15:24;-0.60;99.90
20885;DHT22;10602;48.000;9.654;2022-12-07T16:17:53;-0.60;99.90
20885;DHT22;10602;48.000;9.654;2022-12-07T16:20:21;-0.60;99.90
20885;DHT22;10602;48.000;9.654;2022-12-07T16:22:51;-0.70;99.90
20885;DHT22;10602;48.000;9.654;2022-12-07T16:25:19;-0.70;99.90
20885;DHT22;10602;48.000;9.654;2022-12-07T16:27:47;-0.80;99.90
20885;DHT22;10602;48.000;9.654;2022-12-07T16:30:15;-0.80;99.90
20885;DHT22;10602;48.000;9.654;2022-12-07T16:32:45;-0.80;99.90
20885;DHT22;10602;48.000;9.654;2022-12-07T16:35:13;-0.90;99.90
20885;DHT22;10602;48.000;9.654;2022-12-07T16:37:43;-0.90;99.90
20885;DHT22;10602;48.000;9.654;2022-12-07T16:40:11;-0.90;99.90
20885;DHT22;10602;48.000;9.654;2022-12-07T16:42:40;-0.90;99.90
20885;DHT22;10602;48.000;9.654;2022-12-07T16:45:08;-0.90;99.90
20885;DHT22;10602;48.000;9.654;2022-12-07T16:47:37;-0.80;99.90
20885;DHT22;10602;48.000;9.654;2022-12-07T16:50:05;-0.80;99.90
20885;DHT22;10602;48.000;9.654;2022-12-07T16:52:34;-0.80;99.90
20885;DHT22;10602;48.000;9.654;2022-12-07T16:55:01;-0.80;99.90
20885;DHT22;10602;48.000;9.654;2022-12-07T16:57:30;-0.70;99.90
20885;DHT22;10602;48.000;9.654;2022-12-07T16:59:58;-0.70;99.90
20885;DHT22;10602;48.000;9.654;2022-12-07T17:02:26;-0.60;99.90
20885;DHT22;10602;48.000;9.654;2022-12-07T17:04:54;-0.60;99.90
20885;DHT22;10602;48.000;9.654;2022-12-07T17:07:21;-0.50;99.90
20885;DHT22;10602;48.000;9.654;2022-12-07T17:09:49;-0.40;99.90
20885;DHT22;10602;48.000;9.654;2022-12-07T17:12:17;-0.40;99.90
20885;DHT22;10602;48.000;9.654;2022-12-07T17:14:45;-0.30;99.90
20885;DHT22;10602;48.000;9.654;2022-12-07T17:17:30;-0.20;99.90
20885;DHT22;10602;48.000;9.654;2022-12-07T17:19:58;-0.20;99.90
20885;DHT22;10602;48.000;9.654;2022-12-07T17:22:26;-0.30;99.90
20885;DHT22;10602;48.000;9.654;2022-12-07T17:24:53;-0.30;99.90
20885;DHT22;10602;48.000;9.654;2022-12-07T17:27:21;-0.30;99.90
20885;DHT22;10602;48.000;9.654;2022-12-07T17:29:48;-0.30;99.90
20885;DHT22;10602;48.000;9.654;2022-12-07T17:32:16;-0.20;99.90
20885;DHT22;10602;48.000;9.654;2022-12-07T17:34:43;-0.20;99.90
20885;DHT22;10602;48.000;9.654;2022-12-07T17:37:11;-0.10;99.90
20885;DHT22;10602;48.000;9.654;2022-12-07T17:39:38;-0.10;99.90
20885;DHT22;10602;48.000;9.654;2022-12-07T17:42:07;0.00;99.90
20885;DHT22;10602;48.000;9.654;2022-12-07T17:44:52;0.00;99.90
20885;DHT22;10602;48.000;9.654;2022-12-07T17:47:20;0.00;99.90
20885;DHT22;10602;48.000;9.654;2022-12-07T17:49:47;0.00;99.90
20885;DHT22;10602;48.000;9.654;2022-12-07T17:52:15;0.00;99.90
20885;DHT22;10602;48.000;9.654;2022-12-07T17:55:00;0.00;99.90
20885;DHT22;10602;48.000;9.654;2022-12-07T17:57:28;0.00;99.90
20885;DHT22;10602;48.000;9.654;2022-12-07T17:59:56;0.00;99.90
20885;DHT22;10602;48.000;9.654;2022-12-07T18:02:24;0.00;99.90
20885;DHT22;10602;48.000;9.654;2022-12-07T18:04:51;0.00;99.90
20885;DHT22;10602;48.000;9.654;2022-12-07T18:07:19;0.00;99.90
20885;DHT22;10602;48.000;9.654;2022-12-07T18:09:46;0.00;99.90
20885;DHT22;10602;48.000;9.654;2022-12-07T18:12:14;0.00;99.90
20885;DHT22;10602;48.000;9.654;2022-12-07T18:14:41;0.00;99.90
20885;DHT22;10602;48.000;9.654;2022-12-07T18:17:09;0.00;99.90
20885;DHT22;10602;48.000;9.654;2022-12-07T18:19:36;0.00;99.90
20885;DHT22;10602;48.000;9.654;2022-12-07T18:22:04;0.00;99.90
20885;DHT22;10602;48.000;9.654;2022-12-07T18:24:31;0.00;99.90
20885;DHT22;10602;48.000;9.654;2022-12-07T18:26:59;0.00;99.90
20885;DHT22;10602;48.000;9.654;2022-12-07T18:29:26;-0.10;99.90
20885;DHT22;10602;48.000;9.654;2022-12-07T18:31:54;-0.10;99.90
20885;DHT22;10602;48.000;9.654;2022-12-07T18:34:21;-0.20;99.90
20885;DHT22;10602;48.000;9.654;2022-12-07T18:36:49;-0.20;99.90
20885;DHT22;10602;48.000;9.654;2022-12-07T18:39:18;-0.30;99.90
20885;DHT22;10602;48.000;9.654;2022-12-07T18:41:46;-0.30;99.90
20885;DHT22;10602;48.000;9.654;2022-12-07T18:44:14;-0.40;99.90
20885;DHT22;10602;48.000;9.654;2022-12-07T18:46:42;-0.40;99.90
20885;DHT22;10602;48.000;9.654;2022-12-07T18:49:13;-0.50;99.90
20885;DHT22;10602;48.000;9.654;2022-12-07T18:51:41;-0.50;99.90
20885;DHT22;10602;48.000;9.654;2022-12-07T18:54:08;-0.50;99.90
20885;DHT22;10602;48.000;9.654;2022-12-07T18:56:36;-0.60;99.90
20885;DHT22;10602;48.000;9.654;2022-12-07T18:59:04;-0.60;99.90
20885;DHT22;10602;48.000;9.654;2022-12-07T19:01:51;-0.60;99.90
20885;DHT22;10602;48.000;9.654;2022-12-07T19:04:20;-0.60;99.90
20885;DHT22;10602;48.000;9.654;2022-12-07T19:06:48;-0.60;99.90
20885;DHT22;10602;48.000;9.654;2022-12-07T19:09:16;-0.50;99.90
20885;DHT22;10602;48.000;9.654;2022-12-07T19:11:44;-0.50;99.90
20885;DHT22;10602;48.000;9.654;2022-12-07T19:14:29;-0.50;99.90
20885;DHT22;10602;48.000;9.654;2022-12-07T19:16:58;-0.60;99.90
20885;DHT22;10602;48.000;9.654;2022-12-07T19:19:41;-0.50;99.90
20885;DHT22;10602;48.000;9.654;2022-12-07T19:22:11;-0.50;99.90
20885;DHT22;10602;48.000;9.654;2022-12-07T19:24:39;-0.50;99.90
20885;DHT22;10602;48.000;9.654;2022-12-07T19:27:07;-0.60;99.90
20885;DHT22;10602;48.000;9.654;2022-12-07T19:29:35;-0.50;99.90
20885;DHT22;10602;48.000;9.654;2022-12-07T19:32:04;-0.60;99.90
20885;DHT22;10602;48.000;9.654;2022-12-07T19:34:33;-0.60;99.90
20885;DHT22;10602;48.000;9.654;2022-12-07T19:37:01;-0.60;99.90
20885;DHT22;10602;48.000;9.654;2022-12-07T19:39:29;-0.60;99.90
20885;DHT22;10602;48.000;9.654;2022-12-07T19:41:56;-0.60;99.90
20885;DHT22;10602;48.000;9.654;2022-12-07T19:44:26;-0.60;99.90
20885;DHT22;10602;48.000;9.654;2022-12-07T19:46:57;-0.60;99.90
20885;DHT22;10602;48.000;9.654;2022-12-07T19:49:26;-0.60;99.90
20885;DHT22;10602;48.000;9.654;2022-12-07T19:51:56;-0.50;99.90
20885;DHT22;10602;48.000;9.654;2022-12-07T19:54:26;-0.60;99.90
20885;DHT22;10602;48.000;9.654;2022-12-07T19:56:55;-0.50;99.90
20885;DHT22;10602;48.000;9.654;2022-12-07T19:59:25;-0.50;99.90
20885;DHT22;10602;48.000;9.654;2022-12-07T20:01:54;-0.50;99.90
20885;DHT22;10602;48.000;9.654;2022-12-07T20:04:23;-0.50;99.90
20885;DHT22;10602;48.000;9.654;2022-12-07T20:06:54;-0.50;99.90
20885;DHT22;10602;48.000;9.654;2022-12-07T20:09:22;-0.50;99.90
20885;DHT22;10602;48.000;9.654;2022-12-07T20:11:50;-0.50;99.90
20885;DHT22;10602;48.000;9.654;2022-12-07T20:14:35;-0.50;99.90
20885;DHT22;10602;48.000;9.654;2022-12-07T20:17:03;-0.50;99.90
20885;DHT22;10602;48.000;9.654;2022-12-07T20:19:31;-0.50;99.90
20885;DHT22;10602;48.000;9.654;2022-12-07T20:22:00;-0.50;99.90